Time;durP1;ratioP1;P1;durP2;ratioP2;P2;SDS_P1;SDS_P2;PMS_P1;PMS_P2;Temp;Humidity;BMP_temperature;BMP_pressure;BME280_temperature;BME280_humidity;BME280_pressure;Samples;Min_cycle;Max_cycle;Signal;HPM_P1;HPM_P2
2022/02/01 00:00:56;;;;;;;22.10;11.00;;;;;;;-2.61;80.28;99471.95;89696;1275;88286;-60
2022/02/01 00:03:06;;;;;;;24.00;11.00;;;;;;;-2.63;79.74;99474.11;89678;1275;94284;-60
2022/02/01 00:05:21;;;;;;;25.50;11.00;;;;;;;-2.59;79.99;99475.34;89700;1276;78871;-70
2022/02/01 00:07:39;;;;;;;25.90;12.40;;;;;;;-2.56;80.05;99475.42;89700;1275;82919;-70
2022/02/01 00:09:56;;;;;;;29.50;12.30;;;;;;;-2.56;80.03;99476.84;89673;1274;98688;-60
2022/02/01 00:12:13;;;;;;;26.60;11.80;;;;;;;-2.60;80.11;99470.48;89675;1275;89388;-61
2022/02/01 00:14:31;;;;;;;24.90;10.90;;;;;;;-2.59;80.28;99471.67;89675;1275;94008;-59
2022/02/01 00:17:10;;;;;;;27.50;14.30;;;;;;;-2.58;79.99;99474.18;89663;1274;80349;-60
2022/02/01 00:19:38;;;;;;;27.50;11.90;;;;;;;-2.60;80.16;99477.55;89677;1274;82398;-60
2022/02/01 00:34:12;;;;;;;26.00;11.60;;;;;;;-2.31;80.19;99492.74;89682;1274;98122;-70
2022/02/01 00:36:30;;;;;;;29.20;12.30;;;;;;;-2.30;79.85;99492.95;89685;1274;86889;-70
2022/02/01 00:38:48;;;;;;;27.90;12.80;;;;;;;-2.31;80.04;99491.77;89679;1274;96054;-69
2022/02/01 00:41:03;;;;;;;25.20;11.70;;;;;;;-2.34;80.06;99497.77;89677;1274;77308;-70
2022/02/01 00:43:15;;;;;;;24.80;11.40;;;;;;;-2.37;79.77;99500.45;89681;1274;82421;-71
2022/02/01 00:45:24;;;;;;;24.50;11.30;;;;;;;-2.41;79.93;99505.54;89691;1274;100408;-61
2022/02/01 00:47:34;;;;;;;26.00;11.90;;;;;;;-2.46;79.67;99507.94;89699;1274;89313;-61
2022/02/01 00:49:44;;;;;;;23.90;10.80;;;;;;;-2.51;79.86;99513.46;89644;1274;95278;-69
2022/02/01 00:51:56;;;;;;;25.30;10.00;;;;;;;-2.56;79.85;99518.06;89661;1274;80907;-71
2022/02/01 00:54:05;;;;;;;24.50;9.40;;;;;;;-2.59;80.00;99519.37;89663;1274;83142;-64
2022/02/01 00:56:15;;;;;;;22.50;9.90;;;;;;;-2.61;79.87;99518.54;89669;1274;99427;-60
2022/02/01 00:58:26;;;;;;;21.70;10.00;;;;;;;-2.58;80.17;99517.92;89682;1274;89738;-64
2022/02/01 01:00:35;;;;;;;22.70;9.90;;;;;;;-2.52;80.14;99514.04;89670;1274;93245;-63
2022/02/01 01:02:44;;;;;;;23.50;10.80;;;;;;;-2.48;80.12;99513.91;89703;1274;78858;-62
2022/02/01 01:04:53;;;;;;;25.60;10.90;;;;;;;-2.47;80.24;99505.65;89680;1274;81408;-60
2022/02/01 01:07:02;;;;;;;22.50;10.70;;;;;;;-2.50;80.04;99500.48;89672;1274;98394;-62
2022/02/01 01:09:11;;;;;;;27.80;11.30;;;;;;;-2.55;79.98;99501.74;89677;1274;87770;-62
2022/02/01 01:11:23;;;;;;;22.30;10.10;;;;;;;-2.58;80.05;99497.83;89677;1274;93928;-60
2022/02/01 01:14:00;;;;;;;18.60;9.20;;;;;;;-2.66;80.05;99495.30;89667;1274;80765;-62
2022/02/01 01:16:22;;;;;;;24.60;10.30;;;;;;;-2.76;80.00;99499.48;89674;1274;81355;-71
2022/02/01 01:45:50;;;;;;;18.00;8.70;;;;;;;-3.19;80.47;99531.58;89686;1274;87367;-71
2022/02/01 01:53:14;;;;;;;18.30;8.00;;;;;;;-3.07;80.56;99539.05;89692;1274;83150;-61
2022/02/01 01:55:24;;;;;;;18.80;8.00;;;;;;;-3.03;80.34;99540.33;89662;1274;100319;-64
2022/02/01 01:57:33;;;;;;;19.40;8.10;;;;;;;-3.01;80.53;99541.05;89677;1274;89342;-62
2022/02/01 01:59:43;;;;;;;18.50;7.70;;;;;;;-2.98;80.44;99546.95;89664;1274;95890;-70
2022/02/01 02:01:53;;;;;;;18.70;8.30;;;;;;;-2.95;80.52;99553.45;89625;1275;82065;-71
2022/02/01 02:04:04;;;;;;;17.20;7.40;;;;;;;-2.94;80.57;99551.27;89669;1275;83887;-61
2022/02/01 02:06:14;;;;;;;16.90;7.30;;;;;;;-2.91;80.43;99555.92;89614;1276;99491;-62
2022/02/01 02:08:23;;;;;;;14.70;7.00;;;;;;;-2.85;80.75;99553.16;89655;1277;87915;-61
2022/02/01 02:10:38;;;;;;;18.20;6.80;;;;;;;-2.79;80.63;99562.30;89633;1276;95131;-62
2022/02/01 02:12:57;;;;;;;18.70;7.60;;;;;;;-2.73;80.44;99560.76;89629;1276;80534;-61
2022/02/01 02:15:07;;;;;;;17.90;7.00;;;;;;;-2.64;80.81;99567.89;89665;1276;83035;-73
2022/02/01 02:17:16;;;;;;;17.80;7.90;;;;;;;-2.55;80.70;99570.86;89655;1275;99473;-70
2022/02/01 02:19:28;;;;;;;16.50;7.30;;;;;;;-2.46;80.64;99569.10;89621;1276;88429;-71
2022/02/01 02:21:38;;;;;;;17.90;7.00;;;;;;;-2.38;80.48;99572.48;89656;1276;95475;-71
2022/02/01 02:23:48;;;;;;;18.60;7.70;;;;;;;-2.33;80.38;99570.45;89659;1276;77507;-61
2022/02/01 02:25:57;;;;;;;17.00;6.70;;;;;;;-2.30;80.21;99571.77;89653;1277;83165;-61
2022/02/01 02:28:13;;;;;;;17.20;7.00;;;;;;;-2.29;80.27;99572.73;89658;1276;99834;-62
2022/02/01 02:30:22;;;;;;;16.00;7.10;;;;;;;-2.29;80.50;99580.00;89659;1276;89016;-71
2022/02/01 02:32:31;;;;;;;15.30;7.10;;;;;;;-2.32;80.05;99581.08;89637;1276;96005;-72
2022/02/01 02:34:45;;;;;;;17.00;7.00;;;;;;;-2.33;80.13;99588.13;89664;1275;77049;-72
2022/02/01 02:36:58;;;;;;;15.00;6.50;;;;;;;-2.34;80.30;99586.45;89656;1275;81897;-71
2022/02/01 02:39:19;;;;;;;15.80;6.60;;;;;;;-2.36;80.22;99590.06;89636;1276;99014;-61
2022/02/01 02:41:33;;;;;;;15.00;6.20;;;;;;;-2.36;80.02;99593.29;89643;1276;85409;-62
2022/02/01 02:46:08;;;;;;;14.60;5.80;;;;;;;-2.32;80.18;99592.95;89638;1276;81011;-61
2022/02/01 02:48:17;;;;;;;15.20;6.10;;;;;;;-2.29;80.17;99593.92;89652;1276;80379;-61
2022/02/01 02:50:27;;;;;;;11.80;5.10;;;;;;;-2.27;80.05;99590.71;89638;1276;100594;-71
2022/02/01 02:52:35;;;;;;;14.30;7.00;;;;;;;-2.19;80.28;99590.41;89650;1277;87746;-71
2022/02/01 02:54:48;;;;;;;12.50;6.10;;;;;;;-2.16;80.19;99595.66;89639;1277;94876;-61
2022/02/01 02:57:00;;;;;;;12.30;5.90;;;;;;;-2.16;80.14;99603.02;89633;1276;77670;-62
2022/02/01 02:59:09;;;;;;;13.30;5.50;;;;;;;-2.16;80.18;99607.25;89648;1277;81750;-70
2022/02/01 03:01:18;;;;;;;14.50;6.20;;;;;;;-2.17;80.11;99604.12;89645;1276;99809;-71
2022/02/01 03:03:28;;;;;;;11.30;5.90;;;;;;;-2.16;80.06;99602.70;89645;1276;87605;-71
2022/02/01 03:05:38;;;;;;;14.50;7.00;;;;;;;-2.19;79.86;99602.08;89638;1276;95932;-71
2022/02/01 03:07:50;;;;;;;15.20;6.10;;;;;;;-2.24;80.04;99600.35;89642;1276;79004;-71
2022/02/01 03:10:00;;;;;;;13.30;6.00;;;;;;;-2.26;79.82;99602.27;89673;1277;83247;-64
2022/02/01 03:12:19;;;;;;;12.90;5.70;;;;;;;-2.29;79.69;99599.16;89638;1277;100396;-61
2022/02/01 03:14:43;;;;;;;13.30;5.40;;;;;;;-2.34;79.91;99597.01;89648;1276;87688;-70
2022/02/01 03:17:05;;;;;;;14.20;5.30;;;;;;;-2.41;79.78;99593.33;89667;1276;95869;-71
2022/02/01 03:21:46;;;;;;;12.40;5.20;;;;;;;-2.48;79.80;99598.13;89581;1276;82935;-71
2022/02/01 03:23:55;;;;;;;14.30;5.50;;;;;;;-2.49;79.70;99598.76;89642;1276;99827;-70
2022/02/01 03:26:04;;;;;;;13.70;5.20;;;;;;;-2.48;79.85;99607.98;89667;1276;88742;-72
2022/02/01 03:28:13;;;;;;;13.70;5.70;;;;;;;-2.43;79.97;99613.89;89631;1276;95141;-70
2022/02/01 03:30:24;;;;;;;13.20;5.60;;;;;;;-2.40;79.85;99620.89;89647;1276;77924;-61
2022/02/01 03:32:33;;;;;;;11.70;6.10;;;;;;;-2.38;79.97;99618.97;89668;1276;82322;-60
2022/02/01 03:34:45;;;;;;;13.00;5.60;;;;;;;-2.40;79.83;99620.58;89681;1276;98498;-69
2022/02/01 03:36:54;;;;;;;14.20;5.80;;;;;;;-2.45;79.71;99626.06;89678;1276;88342;-70
2022/02/01 03:39:04;;;;;;;15.50;6.60;;;;;;;-2.49;79.77;99628.89;89648;1276;93638;-70
2022/02/01 03:41:12;;;;;;;14.80;6.10;;;;;;;-2.53;79.54;99628.49;89679;1276;77981;-70
2022/02/01 03:43:21;;;;;;;12.60;5.90;;;;;;;-2.59;79.67;99636.73;89666;1276;80662;-70
2022/02/01 03:45:30;;;;;;;14.40;6.20;;;;;;;-2.64;79.69;99639.45;89659;1276;100368;-64
2022/02/01 03:47:39;;;;;;;17.00;7.00;;;;;;;-2.71;79.57;99637.23;89659;1276;88843;-60
2022/02/01 03:49:51;;;;;;;15.00;6.10;;;;;;;-2.75;79.66;99626.14;89657;1276;95128;-60
2022/02/01 03:52:01;;;;;;;15.60;6.50;;;;;;;-2.78;79.75;99623.22;89662;1276;81414;-61
2022/02/01 03:54:13;;;;;;;12.40;5.60;;;;;;;-2.78;79.84;99618.09;89663;1276;81731;-69
2022/02/01 03:56:22;;;;;;;16.70;5.90;;;;;;;-2.75;79.76;99617.14;89663;1276;97836;-69
2022/02/01 03:58:31;;;;;;;12.80;5.90;;;;;;;-2.72;79.91;99613.54;89681;1276;87450;-70
2022/02/01 04:00:43;;;;;;;11.20;5.70;;;;;;;-2.68;80.03;99622.88;89663;1276;94711;-70
2022/02/01 04:02:52;;;;;;;15.10;5.80;;;;;;;-2.64;80.04;99630.17;89637;1276;78463;-70
2022/02/01 04:05:01;;;;;;;14.90;5.90;;;;;;;-2.59;80.05;99629.17;89685;1276;82038;-70
2022/02/01 04:07:13;;;;;;;18.90;6.70;;;;;;;-2.56;80.21;99627.92;89665;1276;100197;-69
2022/02/01 04:09:23;;;;;;;14.70;6.80;;;;;;;-2.57;80.00;99627.41;89681;1275;88234;-60
2022/02/01 04:11:32;;;;;;;14.70;6.40;;;;;;;-2.57;80.24;99620.78;89641;1276;93890;-61
2022/02/01 04:13:42;;;;;;;13.60;6.20;;;;;;;-2.64;80.19;99621.89;89684;1276;78994;-60
2022/02/01 04:15:51;;;;;;;16.30;6.10;;;;;;;-2.73;80.09;99628.40;89660;1276;79246;-60
2022/02/01 04:18:00;;;;;;;13.60;6.20;;;;;;;-2.80;79.82;99626.86;89667;1276;99603;-60
2022/02/01 04:20:11;;;;;;;11.70;5.70;;;;;;;-2.89;79.95;99622.33;89688;1276;89632;-70
2022/02/01 04:22:21;;;;;;;16.10;7.00;;;;;;;-2.95;79.92;99619.46;89646;1276;95155;-70
2022/02/01 04:24:31;;;;;;;17.00;6.30;;;;;;;-2.99;80.15;99616.27;89650;1276;81944;-70
2022/02/01 04:26:43;;;;;;;14.00;6.80;;;;;;;-3.03;80.14;99616.77;89675;1276;81798;-70
2022/02/01 04:28:52;;;;;;;14.70;7.00;;;;;;;-3.05;80.19;99617.45;89656;1276;99398;-70
2022/02/01 04:31:01;;;;;;;17.50;6.60;;;;;;;-3.05;80.27;99616.02;89658;1276;88334;-70
2022/02/01 04:33:11;;;;;;;14.20;6.60;;;;;;;-3.03;80.33;99611.80;89638;1276;94193;-71
2022/02/01 04:35:23;;;;;;;15.60;6.90;;;;;;;-2.99;80.56;99605.88;89671;1276;79048;-70
2022/02/01 04:37:32;;;;;;;16.40;7.10;;;;;;;-2.94;80.66;99604.95;89674;1276;83082;-70
2022/02/01 04:39:41;;;;;;;14.20;6.90;;;;;;;-2.90;80.22;99603.40;89663;1276;100129;-60
2022/02/01 04:41:50;;;;;;;16.70;7.40;;;;;;;-2.91;80.40;99601.34;89666;1275;87129;-60
2022/02/01 04:44:00;;;;;;;19.00;7.20;;;;;;;-2.89;80.58;99599.95;89661;1275;93934;-60
2022/02/01 04:46:09;;;;;;;17.40;8.20;;;;;;;-2.87;80.47;99596.44;89660;1276;77497;-60
2022/02/01 04:48:19;;;;;;;15.70;7.30;;;;;;;-2.88;80.47;99593.38;89680;1276;82841;-60
2022/02/01 04:50:32;;;;;;;16.40;8.10;;;;;;;-2.90;80.41;99597.20;89681;1276;98608;-61
2022/02/01 04:52:43;;;;;;;18.10;8.30;;;;;;;-2.92;80.40;99594.27;89670;1276;89055;-61
2022/02/01 04:54:52;;;;;;;17.40;8.00;;;;;;;-2.96;80.18;99597.70;89666;1276;95750;-60
2022/02/01 04:57:01;;;;;;;15.30;8.30;;;;;;;-3.00;80.31;99602.42;89653;1275;81345;-60
2022/02/01 04:59:10;;;;;;;20.50;9.20;;;;;;;-3.08;80.28;99599.72;89651;1276;80833;-69
2022/02/01 05:01:23;;;;;;;19.30;9.10;;;;;;;-3.13;80.67;99609.29;89653;1276;99466;-70
2022/02/01 05:03:32;;;;;;;16.60;8.00;;;;;;;-3.16;80.53;99621.17;89661;1276;87687;-70
2022/02/01 05:05:41;;;;;;;17.60;8.70;;;;;;;-3.20;80.38;99622.84;89658;1276;93330;-70
2022/02/01 05:07:50;;;;;;;16.60;7.80;;;;;;;-3.20;80.65;99620.77;89665;1276;80171;-70
2022/02/01 05:10:02;;;;;;;15.80;7.60;;;;;;;-3.18;80.66;99621.27;89685;1276;82412;-60
2022/02/01 05:12:13;;;;;;;16.90;8.10;;;;;;;-3.15;80.82;99626.89;89655;1276;100402;-60
2022/02/01 05:14:24;;;;;;;17.60;8.60;;;;;;;-3.14;80.76;99630.55;89680;1276;89061;-70
2022/02/01 05:16:43;;;;;;;21.00;8.80;;;;;;;-3.16;80.94;99632.80;89655;1276;93721;-70
2022/02/01 05:19:02;;;;;;;18.30;8.60;;;;;;;-3.13;80.94;99635.70;89645;1276;77326;-70
2022/02/01 05:21:14;;;;;;;19.70;8.60;;;;;;;-3.17;80.92;99644.30;89667;1276;81901;-70
2022/02/01 05:23:27;;;;;;;20.40;9.70;;;;;;;-3.22;80.88;99643.80;89645;1275;99543;-71
2022/02/01 05:25:37;;;;;;;19.90;9.40;;;;;;;-3.27;81.05;99640.20;89649;1276;87136;-70
2022/02/01 05:27:49;;;;;;;22.50;10.30;;;;;;;-3.36;81.10;99638.06;89643;1276;93893;-70
2022/02/01 05:29:58;;;;;;;26.20;12.10;;;;;;;-3.40;80.99;99636.80;89657;1276;78753;-70
2022/02/01 05:32:22;;;;;;;27.70;12.40;;;;;;;-3.44;80.95;99643.69;89662;1276;82692;-70
2022/02/01 05:34:31;;;;;;;25.30;11.50;;;;;;;-3.44;80.84;99644.70;89642;1276;98670;-70
2022/02/01 05:36:40;;;;;;;27.50;11.10;;;;;;;-3.45;80.80;99641.44;89656;1276;89017;-71
2022/02/01 05:38:52;;;;;;;23.70;10.20;;;;;;;-3.46;81.02;99641.85;89640;1276;94991;-70
2022/02/01 05:41:04;;;;;;;24.20;10.70;;;;;;;-3.46;80.86;99637.80;89611;1276;79389;-70
2022/02/01 05:43:19;;;;;;;16.30;7.60;;;;;;;-3.46;81.27;99646.13;89646;1275;80989;-70
2022/02/01 05:45:27;;;;;;;;;;;;;;;-3.47;81.08;99645.29;89650;1276;99982;-70
2022/02/01 05:47:36;;;;;;;20.90;9.30;;;;;;;-3.50;81.22;99645.39;89647;1276;89506;-70
2022/02/01 05:49:48;;;;;;;19.40;9.20;;;;;;;-3.53;81.15;99656.01;89632;1276;93641;-70
2022/02/01 05:52:02;;;;;;;21.00;9.60;;;;;;;-3.55;81.35;99656.11;89613;1276;80647;-70
2022/02/01 05:54:11;;;;;;;21.30;10.00;;;;;;;-3.54;81.09;99662.41;89648;1276;80851;-70
2022/02/01 05:56:22;;;;;;;20.10;9.90;;;;;;;-3.61;81.27;99664.86;89588;1276;98092;-70
2022/02/01 05:58:34;;;;;;;22.50;10.30;;;;;;;-3.67;81.33;99667.75;89634;1275;89562;-71
2022/02/01 06:00:44;;;;;;;22.60;9.40;;;;;;;-3.70;81.26;99671.53;89623;1276;96149;-61
2022/02/01 06:02:55;;;;;;;22.30;10.10;;;;;;;-3.74;81.51;99678.20;89584;1276;80510;-60
2022/02/01 06:05:05;;;;;;;22.60;10.50;;;;;;;-3.77;81.47;99679.67;89646;1276;80877;-61
2022/02/01 06:07:16;;;;;;;22.00;9.50;;;;;;;-3.79;81.57;99679.13;89630;1275;98415;-61
2022/02/01 06:09:25;;;;;;;24.20;10.80;;;;;;;-3.80;81.40;99674.42;89669;1276;88662;-70
2022/02/01 06:11:34;;;;;;;23.60;10.40;;;;;;;-3.83;81.49;99677.12;89628;1276;93829;-71
2022/02/01 06:13:43;;;;;;;22.80;10.30;;;;;;;-3.84;81.42;99674.18;89634;1276;79396;-60
2022/02/01 06:15:52;;;;;;;21.30;10.20;;;;;;;-3.80;81.54;99671.59;89663;1276;81796;-61
2022/02/01 06:18:04;;;;;;;23.90;9.90;;;;;;;-3.80;81.53;99673.21;89653;1276;98795;-61
2022/02/01 06:20:16;;;;;;;21.70;10.50;;;;;;;-3.75;81.85;99673.54;89653;1276;87896;-61
2022/02/01 06:22:25;;;;;;;18.60;9.80;;;;;;;-3.73;81.68;99679.30;89650;1276;93102;-61
2022/02/01 06:24:35;;;;;;;17.10;9.50;;;;;;;-3.74;81.67;99680.34;89667;1275;79011;-70
2022/02/01 06:26:44;;;;;;;24.80;10.90;;;;;;;-3.78;81.75;99687.45;89658;1276;82305;-71
2022/02/01 06:28:53;;;;;;;22.20;10.80;;;;;;;-3.81;81.65;99687.53;89656;1276;99628;-70
2022/02/01 06:31:02;;;;;;;25.30;11.20;;;;;;;-3.83;81.85;99690.13;89644;1276;88295;-71
2022/02/01 06:33:12;;;;;;;24.40;10.80;;;;;;;-3.84;81.75;99695.14;89637;1276;94410;-71
2022/02/01 06:35:23;;;;;;;26.70;10.90;;;;;;;-3.84;81.98;99690.71;89655;1276;81360;-70
2022/02/01 06:37:32;;;;;;;18.40;9.10;;;;;;;-3.80;81.78;99691.86;89669;1276;80516;-71
2022/02/01 06:39:42;;;;;;;21.00;10.20;;;;;;;-3.75;82.25;99680.52;89655;1276;99444;-71
2022/02/01 06:41:52;;;;;;;21.10;9.80;;;;;;;-3.64;81.89;99680.04;89652;1276;87702;-71
2022/02/01 06:44:05;;;;;;;23.50;10.30;;;;;;;-3.50;82.13;99676.17;89586;1276;94765;-61
2022/02/01 06:46:15;;;;;;;20.80;10.50;;;;;;;-3.32;82.09;99674.74;89664;1276;79243;-61
2022/02/01 06:48:28;;;;;;;22.70;11.00;;;;;;;-3.17;82.05;99673.88;89663;1276;81054;-62
2022/02/01 06:50:37;;;;;;;22.20;10.80;;;;;;;-2.97;82.10;99669.85;89657;1276;97168;-71
2022/02/01 06:52:46;;;;;;;23.80;12.70;;;;;;;-2.78;82.13;99667.77;89675;1276;87859;-71
2022/02/01 06:54:55;;;;;;;20.30;10.50;;;;;;;-2.61;81.97;99670.80;89666;1275;95506;-71
2022/02/01 06:57:07;;;;;;;23.30;10.70;;;;;;;-2.48;81.86;99665.09;89651;1276;80104;-71
2022/02/01 06:59:17;;;;;;;22.20;11.30;;;;;;;-2.36;81.64;99672.41;89602;1276;81557;-71
2022/02/01 07:01:36;;;;;;;19.20;10.70;;;;;;;-2.24;81.66;99673.15;89670;1276;97789;-72
2022/02/01 07:03:50;;;;;;;22.10;10.20;;;;;;;-1.83;82.03;99674.11;89669;1275;88027;-70
2022/02/01 07:05:59;;;;;;;19.40;10.20;;;;;;;-1.54;81.54;99676.27;89643;1275;95108;-71
2022/02/01 07:08:09;;;;;;;22.00;11.50;;;;;;;-1.51;81.27;99678.41;89665;1275;78571;-72
2022/02/01 07:10:18;;;;;;;23.90;10.20;;;;;;;-1.35;81.39;99673.91;89663;1276;82529;-71
2022/02/01 07:12:27;;;;;;;22.70;11.00;;;;;;;-1.11;81.09;99671.48;89637;1276;96647;-72
2022/02/01 07:14:38;;;;;;;22.60;10.70;;;;;;;-1.09;81.03;99671.95;89663;1276;85668;-62
2022/02/01 07:16:47;;;;;;;22.60;9.90;;;;;;;-0.95;80.70;99672.09;89653;1276;94905;-61
2022/02/01 07:18:56;;;;;;;20.80;9.90;;;;;;;-0.93;80.57;99673.38;89657;1276;77945;-71
2022/02/01 07:21:05;;;;;;;21.30;10.80;;;;;;;-0.93;80.26;99676.70;89674;1275;81284;-74
2022/02/01 07:23:21;;;;;;;19.60;9.50;;;;;;;-1.02;80.51;99677.87;89681;1276;98542;-71
2022/02/01 07:25:44;;;;;;;23.90;9.80;;;;;;;-0.97;80.17;99682.97;89688;1276;88949;-62
2022/02/01 07:27:55;;;;;;;19.00;9.40;;;;;;;-0.88;80.31;99687.94;89682;1276;94822;-61
2022/02/01 07:30:04;;;;;;;18.50;10.20;;;;;;;-0.66;80.24;99689.20;89595;1276;79185;-71
2022/02/01 07:32:13;;;;;;;21.10;10.60;;;;;;;-0.22;80.40;99683.55;89625;1276;81251;-70
2022/02/01 07:34:22;;;;;;;20.00;10.60;;;;;;;0.26;80.52;99687.09;89637;1276;99856;-72
2022/02/01 07:36:31;;;;;;;19.40;10.10;;;;;;;0.81;80.27;99681.59;89618;1276;88237;-72
2022/02/01 07:38:40;;;;;;;20.90;9.60;;;;;;;1.05;79.64;99684.43;89616;1276;94871;-70
2022/02/01 07:40:50;;;;;;;19.20;10.90;;;;;;;1.04;79.11;99686.84;89620;1276;79345;-73
2022/02/01 07:43:00;;;;;;;20.20;10.30;;;;;;;0.78;78.67;99689.62;89623;1276;80459;-71
2022/02/01 07:45:14;;;;;;;18.20;9.70;;;;;;;0.45;78.58;99687.98;89603;1276;100120;-71
2022/02/01 07:47:24;;;;;;;18.00;8.80;;;;;;;0.41;78.50;99686.63;89666;1276;89339;-72
2022/02/01 07:49:33;;;;;;;18.50;9.80;;;;;;;0.73;78.64;99685.15;89616;1276;94489;-70
2022/02/01 07:51:42;;;;;;;16.90;9.30;;;;;;;1.34;78.86;99684.23;89665;1276;78468;-70
2022/02/01 07:53:51;;;;;;;20.40;9.80;;;;;;;1.92;78.96;99684.89;89602;1275;80466;-71
2022/02/01 07:55:59;;;;;;;21.60;11.30;;;;;;;2.36;78.43;99682.05;89589;1276;99994;-70
2022/02/01 07:58:09;;;;;;;30.50;17.50;;;;;;;2.55;77.94;99683.13;89624;1276;87715;-70
2022/02/01 08:00:22;;;;;;;20.40;9.40;;;;;;;2.33;77.07;99683.00;89664;1275;93009;-63
2022/02/01 08:02:33;;;;;;;16.50;9.30;;;;;;;2.25;77.00;99686.34;89666;1276;77968;-62
2022/02/01 08:04:42;;;;;;;15.30;8.90;;;;;;;2.82;77.52;99681.34;89684;1276;82374;-70
2022/02/01 08:06:52;;;;;;;15.30;8.80;;;;;;;3.78;76.93;99675.80;89687;1276;100246;-70
2022/02/01 08:09:13;;;;;;;17.30;8.30;;;;;;;4.21;76.21;99677.33;89692;1276;87882;-70
2022/02/01 08:11:23;;;;;;;16.60;8.90;;;;;;;4.26;75.59;99676.42;89673;1276;93818;-70
2022/02/01 08:18:36;;;;;;;12.40;8.20;;;;;;;4.41;74.30;99664.59;89669;1276;99281;-61
2022/02/01 08:20:49;;;;;;;15.90;8.80;;;;;;;4.38;74.07;99662.92;89575;1276;89196;-61
2022/02/01 08:23:02;;;;;;;17.30;8.70;;;;;;;4.47;74.01;99658.28;89612;1276;94658;-62
2022/02/01 08:25:15;;;;;;;16.20;9.60;;;;;;;4.75;73.74;99652.95;89631;1276;77600;-63
2022/02/01 08:27:25;;;;;;;17.50;9.30;;;;;;;5.50;73.46;99647.98;89696;1276;82940;-73
2022/02/01 08:29:38;;;;;;;13.50;8.60;;;;;;;6.08;72.23;99648.37;89639;1276;98266;-62
2022/02/01 08:31:47;;;;;;;14.10;9.60;;;;;;;5.83;71.88;99650.61;89643;1276;87739;-60
2022/02/01 08:33:59;;;;;;;16.00;9.50;;;;;;;5.34;71.70;99658.35;89619;1276;96115;-63
2022/02/01 08:36:08;;;;;;;13.60;9.60;;;;;;;5.34;71.46;99658.34;89631;1276;77356;-60
2022/02/01 08:38:20;;;;;;;12.30;8.40;;;;;;;5.18;70.74;99656.60;89640;1276;81845;-60
2022/02/01 08:40:29;;;;;;;14.80;8.30;;;;;;;4.88;70.84;99663.13;89619;1276;98782;-67
2022/02/01 08:42:38;;;;;;;11.90;7.70;;;;;;;4.75;71.03;99665.79;89626;1276;89536;-69
2022/02/01 08:44:47;;;;;;;13.10;8.30;;;;;;;4.58;70.90;99669.27;89534;1277;94416;-68
2022/02/01 08:46:57;;;;;;;12.30;7.70;;;;;;;4.41;70.74;99667.63;89629;1276;77670;-68
2022/02/01 08:49:05;;;;;;;14.10;8.10;;;;;;;4.26;70.76;99667.17;89618;1276;82072;-68
2022/02/01 08:51:16;;;;;;;13.00;7.10;;;;;;;4.37;70.61;99667.17;89602;1276;99602;-68
2022/02/01 08:53:35;;;;;;;13.50;6.90;;;;;;;4.68;70.70;99663.41;89696;1275;87571;-68
2022/02/01 08:56:02;;;;;;;12.10;6.30;;;;;;;4.88;69.91;99667.14;89615;1276;94342;-68
2022/02/01 08:58:11;;;;;;;14.00;7.60;;;;;;;4.79;69.87;99669.67;89684;1275;77819;-69
2022/02/01 09:00:20;;;;;;;12.90;6.70;;;;;;;4.75;69.70;99668.35;89625;1276;82886;-69
2022/02/01 09:02:30;;;;;;;16.00;7.50;;;;;;;4.60;69.16;99662.81;89627;1276;99598;-69
2022/02/01 09:04:39;;;;;;;12.90;6.70;;;;;;;4.32;69.24;99662.27;89618;1276;86974;-70
2022/02/01 09:06:50;;;;;;;13.00;7.20;;;;;;;4.10;69.39;99661.42;89617;1276;93710;-69
2022/02/01 09:08:59;;;;;;;18.60;8.90;;;;;;;3.94;69.57;99658.54;89510;1277;78784;-69
2022/02/01 09:11:08;;;;;;;17.30;8.80;;;;;;;3.88;69.51;99656.48;89605;1276;81561;-69
2022/02/01 09:13:21;;;;;;;15.70;7.70;;;;;;;3.87;69.34;99657.48;89615;1276;99705;-69
2022/02/01 09:15:33;;;;;;;16.50;7.90;;;;;;;3.86;69.62;99659.05;89631;1273;88743;-62
2022/02/01 09:17:45;;;;;;;16.20;8.30;;;;;;;3.96;69.46;99659.54;89629;1276;94974;-63
2022/02/01 09:19:54;;;;;;;15.60;7.60;;;;;;;4.05;69.39;99658.61;89693;1276;77593;-62
2022/02/01 09:22:05;;;;;;;14.00;7.60;;;;;;;4.18;69.65;99657.85;89610;1276;80741;-62
2022/02/01 09:24:16;;;;;;;14.00;7.60;;;;;;;4.21;69.26;99660.76;89637;1276;98606;-62
2022/02/01 09:26:26;;;;;;;16.20;7.60;;;;;;;4.18;69.29;99668.40;89705;1276;89035;-62
2022/02/01 09:28:41;;;;;;;16.40;7.90;;;;;;;4.06;68.36;99667.77;89608;1276;92792;-63
2022/02/01 09:30:49;;;;;;;15.10;8.20;;;;;;;3.97;68.63;99670.79;89628;1275;77168;-69
2022/02/01 09:33:02;;;;;;;16.90;8.60;;;;;;;3.94;68.77;99661.36;89614;1275;82335;-70
2022/02/01 09:35:11;;;;;;;11.60;7.00;;;;;;;3.76;68.67;99656.74;89603;1276;100609;-69
2022/02/01 09:37:23;;;;;;;13.60;7.40;;;;;;;3.60;68.51;99659.43;89614;1276;86936;-69
2022/02/01 09:39:32;;;;;;;15.50;8.50;;;;;;;3.45;68.91;99658.33;89613;1276;95795;-69
2022/02/01 09:41:43;;;;;;;15.00;8.00;;;;;;;3.44;68.80;99654.52;89433;1276;230632;-69
2022/02/01 09:43:52;;;;;;;14.00;8.10;;;;;;;3.40;68.56;99649.93;89634;1276;81154;-69
2022/02/01 09:46:03;;;;;;;14.80;8.50;;;;;;;3.45;68.78;99649.22;89608;1276;99701;-69
2022/02/01 09:48:12;;;;;;;14.70;7.20;;;;;;;3.52;68.97;99654.88;89653;1276;87688;-69
2022/02/01 09:50:29;;;;;;;16.00;8.60;;;;;;;3.48;68.95;99651.76;89610;1276;95666;-62
2022/02/01 09:52:39;;;;;;;14.20;8.30;;;;;;;3.48;68.48;99654.66;89631;1276;78917;-61
2022/02/01 09:54:54;;;;;;;15.20;7.70;;;;;;;3.49;68.19;99655.00;89705;1276;80192;-61
2022/02/01 09:57:08;;;;;;;16.80;8.00;;;;;;;3.57;68.39;99652.95;89706;1276;99601;-61
2022/02/01 09:59:29;;;;;;;17.00;8.90;;;;;;;3.68;68.97;99654.61;89687;1275;86883;-68
2022/02/01 10:01:46;;;;;;;16.50;8.00;;;;;;;3.88;69.12;99652.58;89683;1275;95191;-69
2022/02/01 10:04:07;;;;;;;15.60;8.00;;;;;;;3.96;69.13;99644.07;89702;1276;78048;-62
2022/02/01 10:06:18;;;;;;;15.10;8.10;;;;;;;4.16;69.01;99647.40;89714;1276;82101;-62
2022/02/01 10:08:31;;;;;;;18.20;8.80;;;;;;;4.30;68.99;99643.26;89696;1276;98099;-62
2022/02/01 10:10:40;;;;;;;17.70;8.40;;;;;;;4.21;67.84;99637.27;89700;1276;88685;-62
2022/02/01 10:13:02;;;;;;;16.60;8.20;;;;;;;3.96;68.34;99634.58;89685;1276;94858;-62
2022/02/01 10:15:24;;;;;;;16.60;8.50;;;;;;;3.72;68.66;99626.61;89701;1275;77444;-69
2022/02/01 10:17:43;;;;;;;16.70;7.80;;;;;;;3.58;68.75;99619.21;89687;1276;82781;-69
2022/02/01 10:19:52;;;;;;;15.70;8.00;;;;;;;3.53;68.81;99617.02;89677;1276;99659;-62
2022/02/01 10:22:04;;;;;;;14.90;8.10;;;;;;;3.43;68.21;99612.66;89701;1276;89407;-62
2022/02/01 10:24:14;;;;;;;17.50;7.70;;;;;;;3.15;67.52;99609.44;89707;1276;94583;-69
2022/02/01 10:26:28;;;;;;;16.20;7.90;;;;;;;3.17;68.47;99607.98;89690;1276;79206;-69
2022/02/01 10:29:04;;;;;;;17.00;7.80;;;;;;;3.30;68.71;99602.33;89714;1276;79306;-65
2022/02/01 10:31:26;;;;;;;15.30;8.30;;;;;;;3.41;68.97;99595.08;89685;1276;98036;-69
2022/02/01 10:36:18;;;;;;;19.50;8.80;;;;;;;3.43;69.10;99594.25;89412;1279;92422;-61
2022/02/01 10:38:35;;;;;;;17.50;9.20;;;;;;;3.38;69.30;99592.83;89399;1279;77244;-61
2022/02/01 10:40:47;;;;;;;18.90;8.80;;;;;;;3.38;69.05;99583.29;89423;1276;83163;-68
2022/02/01 10:43:02;;;;;;;16.60;8.10;;;;;;;3.27;69.17;99578.76;89695;1276;98318;-69
2022/02/01 10:45:13;;;;;;;15.50;9.20;;;;;;;3.19;68.83;99581.61;89692;1275;86209;-62
2022/02/01 10:47:35;;;;;;;17.60;9.40;;;;;;;3.15;69.23;99576.92;89675;1276;97321;-62
2022/02/01 10:49:44;;;;;;;18.30;9.30;;;;;;;3.16;69.11;99577.27;89684;1276;79030;-62
2022/02/01 10:52:06;;;;;;;19.10;8.60;;;;;;;3.26;69.48;99568.77;89694;1276;81461;-62
2022/02/01 10:54:18;;;;;;;21.50;9.80;;;;;;;3.39;69.51;99565.94;89700;1276;98652;-68
2022/02/01 10:56:29;;;;;;;16.70;9.00;;;;;;;3.47;69.31;99560.20;89723;1275;87200;-69
2022/02/01 10:58:42;;;;;;;19.80;9.50;;;;;;;3.58;69.68;99557.09;89691;1276;94956;-65
2022/02/01 11:00:51;;;;;;;20.50;10.10;;;;;;;3.61;69.68;99553.21;89681;1275;78147;-62
2022/02/01 11:03:01;;;;;;;21.10;9.80;;;;;;;3.61;69.66;99551.09;89715;1276;83164;-62
2022/02/01 11:05:15;;;;;;;17.30;9.80;;;;;;;3.59;69.47;99551.79;89708;1276;99724;-70
2022/02/01 11:07:23;;;;;;;21.20;9.30;;;;;;;3.46;69.31;99543.27;89708;1275;89073;-69
2022/02/01 11:09:36;;;;;;;17.10;10.10;;;;;;;3.30;69.56;99539.70;89689;1276;95095;-62
2022/02/01 11:11:57;;;;;;;21.50;10.60;;;;;;;3.34;69.76;99535.30;89689;1275;78041;-61